Time;durP1;ratioP1;P1;durP2;ratioP2;P2;SDS_P1;SDS_P2;PMS_P1;PMS_P2;Temp;Humidity;BMP_temperature;BMP_pressure;BME280_temperature;BME280_humidity;BME280_pressure;Samples;Min_cycle;Max_cycle;Signal;HPM_P1;HPM_P2
2022/01/16 00:00:20;;;;;;;30.05;18.77;;;4.00;99.90;;;3.43;100.00;102404.13;4168297;28;20041;-74
2022/01/16 00:04:38;;;;;;;30.08;18.23;;;2.40;99.90;;;3.46;100.00;102430.06;4166822;28;20041;-74
2022/01/16 00:06:43;;;;;;;28.83;19.13;;;4.30;99.90;;;3.54;100.00;102436.63;4163632;28;20034;-74
2022/01/16 00:08:45;;;;;;;27.40;18.75;;;;;;;3.56;100.00;102436.53;4169102;28;20391;-74
2022/01/16 00:10:46;;;;;;;27.73;17.27;;;4.10;99.90;;;3.53;100.00;102429.69;4168621;28;20087;-74
2022/01/16 00:12:48;;;;;;;29.98;18.60;;;4.00;99.90;;;3.52;100.00;102440.22;4168752;28;20530;-74
2022/01/16 00:14:51;;;;;;;32.13;17.90;;;3.90;99.90;;;3.32;100.00;102438.50;4147793;28;20026;-74
2022/01/16 00:16:52;;;;;;;27.33;16.80;;;5.10;99.90;;;3.45;100.00;102449.22;4168471;28;20492;-73
2022/01/16 00:18:53;;;;;;;25.55;16.77;;;4.70;99.90;;;3.45;100.00;102451.84;4168672;28;20396;-74
2022/01/16 00:20:55;;;;;;;27.70;16.60;;;4.60;99.90;;;3.50;100.00;102452.47;4169649;28;20029;-73
2022/01/16 00:22:57;;;;;;;25.30;15.57;;;2.90;99.90;;;3.48;100.00;102436.06;4169212;28;20061;-74
2022/01/16 00:25:02;;;;;;;28.65;17.83;;;5.20;99.90;;;3.55;100.00;102430.50;4168185;28;20021;-74
2022/01/16 00:27:03;;;;;;;30.70;17.73;;;3.10;99.90;;;3.53;100.00;102436.69;4158273;28;20053;-74
2022/01/16 00:29:07;;;;;;;29.08;17.20;;;4.50;99.90;;;3.41;100.00;102429.41;4169498;28;20444;-74
2022/01/16 00:31:09;;;;;;;40.30;20.92;;;4.60;99.90;;;3.43;100.00;102438.88;4168774;28;20439;-74
2022/01/16 00:33:10;;;;;;;35.03;19.25;;;3.70;99.90;;;3.49;100.00;102425.56;4169302;28;20057;-74
2022/01/16 00:35:12;;;;;;;31.92;19.27;;;5.60;99.90;;;3.55;100.00;102429.66;4151803;28;20036;-73
2022/01/16 00:37:13;;;;;;;34.17;18.02;;;3.10;99.90;;;3.49;100.00;102429.94;4162614;28;20476;-73
2022/01/16 00:39:14;;;;;;;30.90;18.27;;;4.20;99.90;;;3.68;100.00;102441.19;4169313;28;20109;-73
2022/01/16 00:41:18;;;;;;;34.35;18.90;;;4.50;99.90;;;3.63;100.00;102432.75;4169327;28;20493;-73
2022/01/16 00:43:19;;;;;;;;;;;4.20;99.90;;;3.66;100.00;102437.81;4169841;28;20464;-74
2022/01/16 00:45:20;;;;;;;31.70;17.25;;;5.70;99.90;;;3.56;100.00;102400.00;4169312;28;19908;-73
2022/01/16 00:47:21;;;;;;;24.30;15.73;;;5.60;99.90;;;3.70;100.00;102418.50;4167939;28;20034;-74
2022/01/16 00:49:22;;;;;;;27.63;15.57;;;3.90;99.90;;;3.62;100.00;102420.59;4184871;28;20461;-74
2022/01/16 00:51:23;;;;;;;26.60;15.32;;;5.30;99.90;;;3.70;100.00;102408.06;4158533;28;20506;-74
2022/01/16 00:53:24;;;;;;;23.10;14.50;;;5.30;99.90;;;3.74;100.00;102379.13;4168981;28;20030;-74
2022/01/16 00:55:25;;;;;;;25.45;15.88;;;6.30;99.90;;;3.66;100.00;102369.97;4169180;28;20032;-73
2022/01/16 00:57:27;;;;;;;26.38;16.77;;;4.30;99.90;;;3.81;100.00;102421.47;4169074;28;20025;-74
2022/01/16 00:59:28;;;;;;;25.17;14.75;;;4.30;99.90;;;3.56;100.00;102387.81;4169256;28;20030;-73
2022/01/16 01:01:28;;;;;;;24.80;15.18;;;5.30;99.90;;;3.79;100.00;102425.91;4169172;28;20083;-73
2022/01/16 01:03:30;;;;;;;25.55;16.17;;;4.40;99.90;;;4.02;100.00;102420.44;4167682;28;20169;-74
2022/01/16 01:05:31;;;;;;;26.17;16.50;;;5.80;99.90;;;3.95;100.00;102399.91;4167705;28;20025;-74
2022/01/16 01:07:32;;;;;;;25.95;15.20;;;4.80;99.90;;;3.97;100.00;102453.78;4167242;28;20120;-74
2022/01/16 01:09:33;;;;;;;28.95;16.95;;;3.00;99.90;;;3.84;100.00;102440.44;4167520;28;20029;-74
2022/01/16 01:11:36;;;;;;;21.90;14.88;;;4.10;99.90;;;3.94;100.00;102455.69;4167651;28;20103;-74
2022/01/16 01:14:13;;;;;;;23.20;14.02;;;3.60;99.90;;;3.85;100.00;102439.50;4167578;28;20025;-74
2022/01/16 01:16:16;;;;;;;26.80;16.75;;;6.00;99.90;;;3.75;100.00;102445.22;4168826;28;20477;-73
2022/01/16 01:18:20;;;;;;;31.25;18.13;;;3.80;99.90;;;3.56;100.00;102423.50;4168645;28;20071;-74
2022/01/16 01:20:24;;;;;;;25.33;15.80;;;5.80;99.90;;;3.59;100.00;102321.59;4168889;28;20487;-74
2022/01/16 01:22:25;;;;;;;;;;;5.70;99.90;;;3.81;100.00;102315.31;4168777;28;20041;-74
2022/01/16 01:24:29;;;;;;;32.83;17.70;;;3.50;99.90;;;3.60;100.00;102352.84;4168694;28;19909;-74
2022/01/16 01:26:36;;;;;;;25.83;15.15;;;4.00;99.90;;;3.66;100.00;102375.19;4168459;28;20176;-74
2022/01/16 01:28:37;;;;;;;27.35;16.10;;;;;;;3.78;100.00;102369.41;4168567;28;20037;-74
2022/01/16 01:30:43;;;;;;;29.77;17.45;;;4.40;99.90;;;3.68;100.00;102339.44;4168572;28;20036;-74
2022/01/16 01:32:46;;;;;;;25.08;15.15;;;4.40;99.90;;;3.85;100.00;102366.41;4168479;28;20029;-73
2022/01/16 01:34:47;;;;;;;24.63;14.87;;;2.10;99.90;;;3.87;100.00;102421.16;4167051;28;20033;-74
2022/01/16 01:36:49;;;;;;;27.55;15.73;;;4.50;99.90;;;3.74;100.00;102401.78;4157065;28;20846;-74
2022/01/16 01:38:50;;;;;;;28.05;17.02;;;4.50;99.90;;;3.77;100.00;102405.09;4168266;28;20070;-74
2022/01/16 01:40:51;;;;;;;25.80;14.98;;;4.50;99.90;;;3.83;100.00;102441.34;4168367;28;20400;-74
2022/01/16 01:51:56;;;;;;;28.25;16.55;;;3.60;99.90;;;3.87;100.00;102481.22;4168020;28;20036;-74
2022/01/16 01:53:57;;;;;;;30.63;15.07;;;5.00;99.90;;;4.03;100.00;102436.97;4168181;28;20033;-74
2022/01/16 01:55:58;;;;;;;24.05;14.63;;;4.80;99.90;;;4.02;100.00;102438.72;4168354;28;20028;-74
2022/01/16 01:57:59;;;;;;;22.70;13.57;;;5.20;99.90;;;4.14;100.00;102452.97;4167037;28;20057;-74
2022/01/16 02:00:01;;;;;;;29.02;13.68;;;4.90;99.90;;;4.00;100.00;102452.78;4162263;28;20036;-74
2022/01/16 02:02:02;;;;;;;31.08;16.60;;;3.30;99.90;;;4.01;100.00;102457.91;4168216;28;20034;-74
2022/01/16 02:04:03;;;;;;;25.65;16.02;;;4.90;99.90;;;4.14;100.00;102471.25;4167143;28;20108;-73
2022/01/16 02:06:04;;;;;;;25.13;15.52;;;5.90;99.90;;;4.11;100.00;102472.25;4158431;28;20033;-74
2022/01/16 02:08:06;;;;;;;29.27;15.07;;;4.70;99.90;;;4.03;100.00;102503.09;4167641;28;20045;-74
2022/01/16 02:10:07;;;;;;;30.98;18.00;;;5.60;99.90;;;3.93;100.00;102486.16;4183201;28;20516;-74
2022/01/16 02:12:09;;;;;;;22.45;14.50;;;4.70;99.90;;;3.87;100.00;102489.03;4168107;28;20022;-74
2022/01/16 02:28:03;;;;;;;21.55;14.15;;;4.60;99.90;;;3.98;100.00;102523.31;4167957;28;20264;-74
2022/01/16 02:34:45;;;;;;;37.70;15.50;;;4.80;99.90;;;3.91;100.00;102501.06;4167851;28;20061;-74
2022/01/16 02:36:49;;;;;;;23.02;14.63;;;4.70;99.90;;;4.00;100.00;102516.28;4166775;28;20025;-74
2022/01/16 02:38:50;;;;;;;;;;;5.20;99.90;;;4.00;100.00;102512.81;4183119;28;20040;-74
2022/01/16 02:40:58;;;;;;;25.60;14.48;;;3.30;99.90;;;3.86;100.00;102503.00;4199829;28;19908;-74
2022/01/16 02:42:59;;;;;;;21.08;13.32;;;3.70;99.90;;;3.75;100.00;102500.88;4166190;28;20029;-74
2022/01/16 02:45:01;;;;;;;28.90;13.82;;;6.50;99.90;;;3.72;100.00;102500.19;4157690;28;20043;-74
2022/01/16 02:47:03;;;;;;;22.27;13.45;;;5.10;99.90;;;3.91;100.00;102519.31;4166620;28;20021;-74
2022/01/16 02:49:20;;;;;;;26.52;15.07;;;4.60;99.90;;;4.00;100.00;102505.84;4163469;28;20367;-74
2022/01/16 02:51:25;;;;;;;26.38;15.20;;;4.70;99.90;;;4.14;100.00;102487.75;4138968;28;20033;-74
2022/01/16 02:53:26;;;;;;;25.85;15.98;;;4.60;99.90;;;3.87;100.00;102452.50;4160091;28;20485;-74
2022/01/16 02:55:27;;;;;;;25.02;15.45;;;5.70;99.90;;;3.96;100.00;102474.72;4169585;28;20025;-74
2022/01/16 02:57:29;;;;;;;26.35;14.45;;;4.70;99.90;;;4.02;100.00;102477.03;4169564;28;20095;-74
2022/01/16 02:59:31;;;;;;;23.05;14.27;;;5.50;99.90;;;3.96;100.00;102491.22;4171046;28;20032;-73
2022/01/16 03:01:32;;;;;;;30.70;13.60;;;;;;;4.11;100.00;102493.13;4169782;28;20056;-73
2022/01/16 03:03:33;;;;;;;27.05;12.40;;;4.90;99.90;;;4.10;100.00;102495.78;4164966;28;20036;-74
2022/01/16 03:05:35;;;;;;;20.25;12.68;;;;;;;4.05;100.00;102493.41;4170712;28;20034;-73
2022/01/16 03:07:36;;;;;;;20.35;12.40;;;4.00;99.90;;;4.05;100.00;102466.44;4170416;28;20021;-73
2022/01/16 03:11:47;;;;;;;25.83;13.50;;;4.50;99.90;;;3.96;100.00;102446.84;4166480;28;20026;-73
2022/01/16 03:13:49;;;;;;;23.10;12.35;;;5.80;99.90;;;3.90;100.00;102453.22;4170516;28;20060;-73
2022/01/16 03:15:52;;;;;;;21.35;12.60;;;5.80;99.90;;;3.91;100.00;102438.41;4170730;28;20017;-74
2022/01/16 03:22:20;;;;;;;33.42;13.07;;;;;;;3.65;100.00;102457.00;4167073;28;20056;-73
2022/01/16 03:24:27;;;;;;;19.70;11.77;;;5.50;99.90;;;3.55;100.00;102442.69;4164153;28;20034;-74
2022/01/16 03:26:28;;;;;;;18.80;11.82;;;4.60;99.90;;;3.76;100.00;102439.09;4152696;28;20034;-74
2022/01/16 03:28:29;;;;;;;27.13;12.65;;;3.30;99.90;;;3.86;100.00;102458.63;4140830;28;20022;-74
2022/01/16 03:30:30;;;;;;;22.08;12.25;;;5.00;99.90;;;3.83;100.00;102424.84;4185961;28;20033;-74
2022/01/16 03:32:31;;;;;;;17.05;11.57;;;4.10;99.90;;;3.79;100.00;102439.78;4164913;28;20045;-74
2022/01/16 03:34:32;;;;;;;18.98;12.45;;;4.50;99.90;;;3.83;100.00;102430.06;4169197;28;20112;-74
2022/01/16 03:36:34;;;;;;;16.80;12.20;;;4.60;99.90;;;3.84;100.00;102447.41;4152745;28;20018;-74
2022/01/16 03:38:34;;;;;;;17.95;11.60;;;4.60;99.90;;;3.82;100.00;102449.25;4168823;28;20041;-74
2022/01/16 03:40:36;;;;;;;21.30;12.77;;;4.50;99.90;;;3.76;100.00;102428.66;4168938;28;20044;-74
2022/01/16 03:42:39;;;;;;;28.80;13.05;;;5.30;99.90;;;3.80;100.00;102443.25;4169132;28;20095;-73
2022/01/16 03:44:40;;;;;;;18.60;12.50;;;5.10;99.90;;;3.76;100.00;102429.50;4170480;28;20033;-73
2022/01/16 03:46:43;;;;;;;14.65;10.63;;;4.50;99.90;;;3.84;100.00;102450.88;4170390;28;20323;-73
2022/01/16 03:48:44;;;;;;;12.95;10.35;;;5.60;99.90;;;3.93;100.00;102457.44;4170249;28;20033;-73
2022/01/16 03:50:45;;;;;;;17.52;11.35;;;5.00;99.90;;;3.69;100.00;102435.06;4170189;28;20033;-73
2022/01/16 03:52:46;;;;;;;18.40;12.43;;;4.40;99.90;;;3.69;100.00;102467.25;4170045;28;20028;-74
2022/01/16 03:54:47;;;;;;;14.75;10.30;;;4.60;99.90;;;3.70;100.00;102462.88;4169086;28;20109;-74
2022/01/16 03:56:49;;;;;;;17.38;10.40;;;3.80;99.90;;;3.53;100.00;102447.13;4146876;28;20398;-73
2022/01/16 03:58:50;;;;;;;15.77;10.60;;;4.40;99.90;;;3.73;100.00;102452.28;4202087;28;20029;-73
2022/01/16 04:00:51;;;;;;;18.20;11.45;;;4.10;99.90;;;3.50;100.00;102434.22;4152446;28;20026;-74
2022/01/16 04:02:53;;;;;;;21.50;11.88;;;4.80;99.90;;;3.54;100.00;102469.69;4159608;28;20057;-73
2022/01/16 04:04:54;;;;;;;21.10;12.13;;;4.40;99.90;;;3.75;100.00;102464.34;4168881;28;20037;-74
2022/01/16 04:06:55;;;;;;;17.50;10.95;;;4.40;99.90;;;3.44;100.00;102452.75;4169518;28;20504;-74
2022/01/16 04:08:57;;;;;;;18.60;11.05;;;4.10;99.90;;;3.37;100.00;102451.34;4152225;28;20084;-74
2022/01/16 04:10:59;;;;;;;16.05;11.32;;;4.50;99.90;;;3.56;100.00;102457.41;4160554;28;20045;-74
2022/01/16 04:13:00;;;;;;;16.55;11.05;;;5.60;99.90;;;3.65;100.00;102446.56;4170032;28;20057;-73
2022/01/16 04:17:03;;;;;;;20.85;12.00;;;4.40;99.90;;;3.67;100.00;102455.19;4168941;28;20088;-73
2022/01/16 04:19:05;;;;;;;18.35;10.90;;;4.70;99.90;;;3.72;100.00;102453.19;4159270;28;20030;-73
2022/01/16 04:21:06;;;;;;;20.08;12.73;;;4.50;99.90;;;3.81;100.00;102442.34;4168665;28;20416;-73
2022/01/16 04:23:09;;;;;;;17.65;11.63;;;3.10;99.90;;;3.79;100.00;102439.78;4168272;28;20037;-73
2022/01/16 04:25:11;;;;;;;19.25;12.68;;;5.30;99.90;;;3.83;100.00;102436.13;4185034;28;20072;-73
2022/01/16 04:27:13;;;;;;;20.65;12.38;;;4.30;99.90;;;3.78;100.00;102434.66;4178095;28;20056;-73
2022/01/16 04:29:14;;;;;;;18.20;12.02;;;4.20;99.90;;;3.84;100.00;102431.75;4162456;28;20025;-73
2022/01/16 04:31:16;;;;;;;17.65;12.25;;;4.70;99.90;;;3.97;100.00;102435.50;4152102;28;20065;-73
2022/01/16 04:33:18;;;;;;;19.08;12.50;;;4.70;99.90;;;3.86;100.00;102435.13;4168518;28;20127;-73
2022/01/16 04:35:20;;;;;;;22.83;12.35;;;4.50;99.90;;;4.02;100.00;102441.34;4169662;28;20028;-73
2022/01/16 04:37:21;;;;;;;16.02;11.35;;;3.20;99.90;;;4.07;100.00;102448.94;4169253;28;20466;-73
2022/01/16 04:39:31;;;;;;;19.23;11.35;;;5.70;99.90;;;3.92;100.00;102425.25;4169403;28;20060;-73
2022/01/16 04:43:52;;;;;;;17.00;11.27;;;5.40;99.90;;;3.85;100.00;102434.28;4168422;28;20052;-73
2022/01/16 04:45:53;;;;;;;16.25;10.73;;;4.90;99.90;;;4.03;100.00;102437.81;4151825;28;20053;-73
2022/01/16 04:47:55;;;;;;;14.65;10.73;;;4.70;99.90;;;4.02;100.00;102441.34;4164419;28;20030;-73
2022/01/16 04:49:56;;;;;;;17.00;10.55;;;3.60;99.90;;;3.99;100.00;102449.31;4160006;28;20029;-73
2022/01/16 04:51:57;;;;;;;15.55;10.52;;;4.80;99.90;;;4.03;100.00;102458.72;4151382;28;20048;-73
2022/01/16 04:53:58;;;;;;;16.02;11.40;;;4.90;99.90;;;4.00;100.00;102450.16;4165113;28;20022;-73
2022/01/16 04:55:59;;;;;;;14.75;11.18;;;5.20;99.90;;;3.97;100.00;102447.69;4155114;28;20037;-73
2022/01/16 04:58:00;;;;;;;17.20;10.15;;;4.60;99.90;;;3.91;100.00;102462.72;4168178;28;20053;-73
2022/01/16 05:00:04;;;;;;;13.05;10.05;;;4.80;99.90;;;3.84;100.00;102457.84;4144862;28;20037;-73
2022/01/16 05:02:04;;;;;;;13.13;10.48;;;3.40;99.90;;;3.88;100.00;102475.91;4184586;28;20032;-73
2022/01/16 05:04:05;;;;;;;19.95;9.48;;;4.70;99.90;;;3.55;100.00;102466.19;4168068;28;20057;-73
2022/01/16 05:06:07;;;;;;;14.55;9.93;;;4.40;99.90;;;3.70;100.00;102476.75;4184562;28;20031;-73
2022/01/16 05:08:08;;;;;;;12.32;9.35;;;4.50;99.90;;;3.88;100.00;102491.56;4176987;28;20452;-73
2022/01/16 05:10:10;;;;;;;15.30;9.45;;;4.10;99.90;;;3.74;100.00;102483.53;4164339;28;20021;-73
2022/01/16 05:12:23;;;;;;;14.45;10.63;;;5.20;99.90;;;3.67;100.00;102482.13;4167450;28;20036;-73
2022/01/16 05:16:44;;;;;;;12.02;9.48;;;4.20;99.90;;;3.87;100.00;102469.00;4162909;28;20064;-73
2022/01/16 05:18:45;;;;;;;13.95;10.07;;;4.70;99.90;;;3.93;100.00;102493.97;4167426;28;20033;-73
2022/01/16 05:20:45;;;;;;;13.75;10.77;;;4.70;99.90;;;3.73;100.00;102476.59;4158258;28;20068;-73
2022/01/16 05:22:47;;;;;;;12.63;10.35;;;5.00;99.90;;;3.72;100.00;102484.53;4168585;28;20037;-73
2022/01/16 05:24:48;;;;;;;13.30;9.70;;;4.90;99.90;;;3.76;100.00;102496.53;4168944;28;20108;-73
2022/01/16 05:26:49;;;;;;;12.70;10.82;;;4.70;99.90;;;3.77;100.00;102480.78;4168770;28;20095;-73
2022/01/16 05:28:50;;;;;;;12.75;10.00;;;4.80;99.90;;;3.80;100.00;102498.91;4151203;28;20026;-74
2022/01/16 05:30:51;;;;;;;14.05;10.80;;;4.30;99.90;;;3.82;100.00;102498.84;4167610;28;20156;-74
2022/01/16 05:32:52;;;;;;;17.48;10.70;;;5.20;99.90;;;3.75;100.00;102497.44;4147291;28;20172;-73
2022/01/16 05:34:53;;;;;;;13.05;10.18;;;5.40;99.90;;;3.89;100.00;102505.47;4168676;28;20026;-73
2022/01/16 05:36:54;;;;;;;12.73;10.25;;;4.60;99.90;;;3.80;100.00;102509.34;4168523;28;20539;-73
2022/01/16 05:38:55;;;;;;;14.20;11.02;;;4.50;99.90;;;3.77;100.00;102522.53;4151165;28;20038;-73
2022/01/16 05:40:56;;;;;;;14.73;11.02;;;4.20;99.90;;;3.86;100.00;102529.97;4147051;28;20034;-73
2022/01/16 05:42:58;;;;;;;15.15;11.07;;;4.50;99.90;;;3.81;100.00;102520.63;4168534;28;20041;-73
2022/01/16 05:44:59;;;;;;;17.00;10.43;;;5.20;99.90;;;3.72;100.00;102526.28;4168717;28;20025;-73
2022/01/16 05:47:02;;;;;;;15.68;10.75;;;4.30;99.90;;;3.57;100.00;102519.13;4168752;28;20100;-73
2022/01/16 05:49:03;;;;;;;16.45;11.10;;;4.20;99.90;;;3.58;100.00;102526.91;4150902;28;20404;-73
2022/01/16 05:51:04;;;;;;;18.15;11.35;;;4.30;99.90;;;3.61;100.00;102523.31;4154592;28;20036;-73
2022/01/16 05:53:05;;;;;;;14.30;10.70;;;4.20;99.90;;;3.74;100.00;102540.09;4158569;28;20025;-73
2022/01/16 05:55:07;;;;;;;15.20;11.07;;;4.30;99.90;;;3.78;100.00;102526.00;4168711;28;20206;-73
2022/01/16 05:57:09;;;;;;;13.13;10.05;;;4.70;99.90;;;3.77;100.00;102537.34;4168476;28;20025;-73
2022/01/16 05:59:10;;;;;;;21.00;12.60;;;;;;;3.69;100.00;102544.69;4167458;28;20497;-73
2022/01/16 06:01:11;;;;;;;16.40;11.65;;;4.60;99.90;;;3.53;100.00;102521.00;4157202;28;20032;-73
2022/01/16 06:03:12;;;;;;;23.05;11.85;;;4.50;99.90;;;3.50;100.00;102525.50;4167248;28;20029;-73
2022/01/16 06:05:13;;;;;;;17.98;12.65;;;4.10;99.90;;;3.77;100.00;102532.13;4168470;28;20056;-73
2022/01/16 06:07:14;;;;;;;17.08;12.45;;;7.00;99.90;;;3.79;100.00;102528.53;4168247;28;20394;-73
2022/01/16 06:09:14;;;;;;;18.83;11.88;;;4.50;99.90;;;3.79;100.00;102525.91;4168192;28;20052;-73
2022/01/16 06:11:16;;;;;;;17.30;12.13;;;4.90;99.90;;;3.80;100.00;102535.44;4167282;28;20108;-73
2022/01/16 06:13:17;;;;;;;25.73;12.40;;;4.50;99.90;;;3.74;100.00;102546.16;4163363;28;20032;-73
2022/01/16 06:15:20;;;;;;;16.55;11.82;;;6.20;99.90;;;3.65;100.00;102548.31;4150572;28;20037;-73
2022/01/16 06:17:21;;;;;;;17.58;12.32;;;4.60;99.90;;;3.62;100.00;102548.47;4150241;28;20025;-73
2022/01/16 06:19:22;;;;;;;16.95;12.18;;;4.40;99.90;;;3.59;100.00;102535.56;4168518;28;20033;-74
2022/01/16 06:21:23;;;;;;;19.58;12.00;;;6.10;99.90;;;3.43;100.00;102524.97;4167039;28;20013;-74
2022/01/16 06:23:24;;;;;;;18.05;13.55;;;4.00;99.90;;;3.60;100.00;102565.97;4167938;28;20052;-73
2022/01/16 06:25:25;;;;;;;18.10;11.82;;;5.00;99.90;;;3.69;100.00;102565.56;4168291;28;20029;-73
2022/01/16 06:27:26;;;;;;;18.58;11.73;;;5.30;99.90;;;3.64;100.00;102555.34;4150802;28;20030;-73
2022/01/16 06:29:27;;;;;;;15.25;10.95;;;5.80;99.90;;;3.64;100.00;102557.94;4168276;28;20445;-73
2022/01/16 06:31:28;;;;;;;19.20;12.98;;;5.10;99.90;;;3.67;100.00;102556.97;4153729;28;20030;-73
2022/01/16 06:33:29;;;;;;;16.98;11.98;;;4.40;99.90;;;3.73;100.00;102548.84;4153864;28;20026;-73
2022/01/16 06:35:30;;;;;;;16.10;12.18;;;3.90;99.90;;;3.71;100.00;102555.88;4170324;28;20035;-73
2022/01/16 06:37:31;;;;;;;16.33;11.82;;;4.50;99.90;;;3.67;100.00;102560.41;4169964;28;20059;-73
2022/01/16 06:39:32;;;;;;;17.42;12.88;;;5.10;99.90;;;3.68;100.00;102549.03;4153804;28;20101;-73
2022/01/16 06:41:34;;;;;;;17.02;12.43;;;4.20;99.90;;;3.72;100.00;102550.63;4170131;28;20091;-73
2022/01/16 06:43:35;;;;;;;15.43;11.93;;;5.20;99.90;;;3.82;100.00;102572.75;4170098;28;20030;-73
2022/01/16 06:45:36;;;;;;;16.88;11.82;;;6.90;99.90;;;3.74;100.00;102566.19;4153647;28;20037;-73
2022/01/16 06:47:37;;;;;;;21.77;12.43;;;5.10;99.90;;;3.81;100.00;102568.47;4169867;28;20038;-73
2022/01/16 06:49:38;;;;;;;16.67;12.63;;;4.70;99.90;;;3.82;100.00;102574.56;4158153;28;20521;-73
2022/01/16 06:51:39;;;;;;;16.02;12.55;;;4.20;99.90;;;3.82;100.00;102562.31;4169860;28;20030;-73
2022/01/16 06:53:40;;;;;;;16.38;11.30;;;;;;;3.92;100.00;102571.44;4153523;28;20088;-73
2022/01/16 06:55:41;;;;;;;19.05;12.77;;;4.30;99.90;;;3.81;100.00;102565.88;4171194;28;20033;-73
2022/01/16 06:57:42;;;;;;;16.80;13.10;;;4.40;99.90;;;3.70;100.00;102575.09;4171242;28;20116;-73
2022/01/16 06:59:45;;;;;;;19.95;13.32;;;4.40;99.90;;;3.80;100.00;102586.81;4169888;28;20508;-73
2022/01/16 07:01:46;;;;;;;16.90;11.68;;;4.80;99.90;;;3.74;100.00;102564.44;4169818;28;20032;-73
2022/01/16 07:03:48;;;;;;;16.13;11.32;;;4.90;99.90;;;3.64;100.00;102572.75;4170901;28;20025;-73
2022/01/16 07:05:49;;;;;;;23.52;12.25;;;4.10;99.90;;;3.64;100.00;102583.19;4171003;28;20025;-73
2022/01/16 07:07:51;;;;;;;19.58;13.27;;;4.30;99.90;;;3.71;100.00;102587.19;4169348;28;20606;-73
2022/01/16 07:09:52;;;;;;;21.38;12.30;;;4.40;99.90;;;3.66;100.00;102586.56;4169741;28;20097;-73
2022/01/16 07:11:53;;;;;;;19.67;13.18;;;4.30;99.90;;;3.64;100.00;102572.75;4170817;28;20037;-73
2022/01/16 07:13:54;;;;;;;16.30;12.77;;;4.60;99.90;;;3.72;100.00;102588.91;4169662;28;20021;-73
2022/01/16 07:15:55;;;;;;;22.63;14.00;;;4.80;99.90;;;3.90;100.00;102590.72;4153252;28;20033;-73
2022/01/16 07:17:57;;;;;;;16.17;12.00;;;4.60;99.90;;;3.87;100.00;102580.41;4153193;28;20014;-73
2022/01/16 07:19:58;;;;;;;18.25;13.07;;;5.40;99.90;;;3.89;100.00;102608.13;4153318;28;20022;-73
2022/01/16 07:21:59;;;;;;;18.88;12.65;;;4.90;99.90;;;3.88;100.00;102600.38;4169252;28;20025;-73
2022/01/16 07:24:00;;;;;;;19.05;13.10;;;4.60;99.90;;;3.77;100.00;102589.53;4170787;28;20527;-73
2022/01/16 07:26:01;;;;;;;17.55;13.05;;;4.20;99.90;;;3.83;100.00;102591.88;4170708;28;20481;-73
2022/01/16 07:28:02;;;;;;;23.83;13.95;;;3.90;99.90;;;4.00;100.00;102589.41;4170557;28;20057;-73
2022/01/16 07:30:05;;;;;;;24.17;13.52;;;4.70;99.90;;;3.88;100.00;102598.59;4169569;28;20037;-73
2022/01/16 07:32:07;;;;;;;25.20;13.20;;;3.50;99.90;;;4.00;100.00;102610.28;4160451;28;20169;-73
2022/01/16 07:34:09;;;;;;;17.98;13.32;;;4.90;99.90;;;3.88;100.00;102597.78;4169428;28;20080;-73
2022/01/16 07:36:10;;;;;;;20.52;14.40;;;4.70;99.90;;;3.98;100.00;102606.88;4185626;28;20021;-73
2022/01/16 07:38:11;;;;;;;17.10;13.23;;;3.50;99.90;;;4.05;100.00;102616.13;4152705;28;20056;-73
2022/01/16 07:40:12;;;;;;;18.08;12.30;;;4.40;99.90;;;3.98;100.00;102608.63;4169430;28;20551;-73
2022/01/16 07:42:13;;;;;;;25.83;13.98;;;4.80;99.90;;;3.80;100.00;102597.25;4163808;28;20052;-74
2022/01/16 07:44:14;;;;;;;21.92;13.77;;;4.80;99.90;;;3.95;100.00;102590.50;4152723;28;20117;-73
2022/01/16 07:46:17;;;;;;;20.15;13.07;;;4.40;99.90;;;3.98;100.00;102585.13;4169219;28;20521;-73
2022/01/16 07:48:18;;;;;;;21.52;14.45;;;6.30;99.90;;;4.01;100.00;102575.41;4161808;28;20493;-73
2022/01/16 07:50:20;;;;;;;20.45;13.32;;;5.10;99.90;;;4.01;100.00;102585.84;4170351;28;20112;-73
2022/01/16 07:52:21;;;;;;;18.60;13.23;;;4.80;99.90;;;4.04;100.00;102601.38;4169867;28;20028;-73
2022/01/16 07:54:22;;;;;;;17.67;12.75;;;4.70;99.90;;;4.06;100.00;102583.88;4170214;28;20489;-73
2022/01/16 07:56:23;;;;;;;24.27;14.30;;;;;;;3.99;100.00;102605.97;4170270;28;20022;-73
2022/01/16 07:58:24;;;;;;;21.33;13.70;;;4.20;99.90;;;4.01;100.00;102604.13;4170301;28;20100;-73
2022/01/16 08:00:26;;;;;;;31.00;12.93;;;4.50;99.90;;;3.98;100.00;102591.22;4170264;28;20049;-73
2022/01/16 08:02:27;;;;;;;22.40;12.38;;;6.30;99.90;;;4.29;100.00;102612.44;4170220;28;20454;-73
2022/01/16 08:04:28;;;;;;;22.27;14.18;;;4.70;99.90;;;4.37;100.00;102625.97;4170187;28;20089;-73
2022/01/16 08:06:29;;;;;;;20.88;13.68;;;5.20;99.90;;;4.04;100.00;102619.66;4169983;28;20073;-73
2022/01/16 08:08:30;;;;;;;21.85;14.02;;;;;;;4.07;100.00;102621.28;4169702;28;20045;-73
2022/01/16 08:10:31;;;;;;;33.95;14.88;;;4.60;99.90;;;3.94;100.00;102620.16;4168558;28;20041;-74
2022/01/16 08:12:33;;;;;;;28.85;15.32;;;4.70;99.90;;;3.87;100.00;102590.84;4168852;28;20053;-74
2022/01/16 08:14:35;;;;;;;20.17;14.27;;;6.90;99.90;;;4.06;100.00;102609.16;4144889;28;20124;-73
2022/01/16 08:16:36;;;;;;;26.23;14.13;;;4.80;99.90;;;4.23;100.00;102607.47;4148133;28;20033;-73
2022/01/16 08:18:37;;;;;;;28.60;13.10;;;4.70;99.90;;;4.04;100.00;102622.28;4169784;28;20180;-74
2022/01/16 08:20:37;;;;;;;21.88;13.27;;;6.90;99.90;;;4.14;100.00;102626.19;4169995;28;20064;-73
2022/01/16 08:22:39;;;;;;;19.70;13.02;;;7.50;99.90;;;4.34;100.00;102630.50;4168083;28;20022;-73
2022/01/16 08:24:40;;;;;;;20.00;13.15;;;5.00;99.90;;;4.27;100.00;102642.97;4163911;28;20136;-73
2022/01/16 08:26:41;;;;;;;25.02;13.30;;;4.80;99.90;;;4.29;100.00;102637.69;4169596;28;20021;-73
2022/01/16 08:28:42;;;;;;;16.88;12.27;;;4.40;99.90;;;4.21;100.00;102630.19;4169415;28;20114;-73
2022/01/16 08:30:43;;;;;;;24.17;12.75;;;4.70;99.90;;;4.18;100.00;102635.53;4168487;28;20061;-73
2022/01/16 08:32:44;;;;;;;22.50;13.30;;;5.30;99.90;;;4.29;100.00;102640.31;4163448;28;20032;-73
2022/01/16 08:34:45;;;;;;;16.63;12.00;;;6.40;99.90;;;4.42;100.00;102642.28;4184665;28;20526;-73
2022/01/16 08:36:46;;;;;;;30.98;14.45;;;5.50;99.90;;;4.51;100.00;102654.06;4140175;28;20539;-73
2022/01/16 08:38:46;;;;;;;30.02;15.00;;;5.10;99.90;;;4.40;100.00;102661.56;4143483;28;20121;-73
2022/01/16 08:40:47;;;;;;;26.33;14.88;;;4.00;99.90;;;4.50;100.00;102665.47;4184830;28;20037;-73
2022/01/16 08:42:48;;;;;;;30.30;12.85;;;6.20;99.90;;;4.45;100.00;102670.03;4167290;28;20492;-74
2022/01/16 08:44:49;;;;;;;29.98;12.45;;;5.20;99.90;;;4.55;100.00;102679.16;4168169;28;20022;-73
2022/01/16 08:46:51;;;;;;;39.97;13.35;;;4.70;99.90;;;4.37;100.00;102670.38;4201252;28;20024;-74
2022/01/16 08:48:52;;;;;;;18.40;11.75;;;5.70;99.90;;;4.44;100.00;102684.88;4169326;28;20029;-73
2022/01/16 08:50:53;;;;;;;30.90;12.38;;;5.10;99.90;;;4.35;100.00;102668.75;4169152;28;20032;-74
2022/01/16 08:52:54;;;;;;;50.15;12.10;;;5.10;99.90;;;4.38;100.00;102693.00;4168288;28;20100;-74
2022/01/16 08:54:55;;;;;;;25.20;13.05;;;5.10;99.90;;;4.24;100.00;102668.41;4168095;28;20584;-74
2022/01/16 08:56:56;;;;;;;41.90;14.55;;;5.30;99.90;;;4.60;100.00;102707.72;4164329;28;20021;-74
2022/01/16 08:58:57;;;;;;;23.52;13.10;;;4.00;99.90;;;4.24;100.00;102674.47;4169028;28;20493;-74
2022/01/16 09:00:58;;;;;;;43.50;26.00;;;7.50;99.90;;;4.52;100.00;102673.22;4169216;28;20056;-74
2022/01/16 09:02:59;;;;;;;28.83;14.60;;;8.10;99.90;;;4.28;100.00;102675.16;4169324;28;20029;-74
2022/01/16 09:05:00;;;;;;;51.60;17.00;;;2.80;99.90;;;4.39;100.00;102697.28;4168922;28;20091;-74
2022/01/16 09:07:01;;;;;;;23.40;15.18;;;5.50;99.90;;;4.58;100.00;102717.38;4168763;28;20033;-74